Time;durP1;ratioP1;P1;durP2;ratioP2;P2;SDS_P1;SDS_P2;PMS_P1;PMS_P2;Temp;Humidity;BMP_temperature;BMP_pressure;BME280_temperature;BME280_humidity;BME280_pressure;Samples;Min_cycle;Max_cycle;Signal;HPM_P1;HPM_P2
2023/09/18 00:00:49;;;;;;;21.75;10.40;;;26.00;63.90;;;;;;5075217;28;20233;-78
2023/09/18 00:03:18;;;;;;;19.13;9.98;;;26.00;64.10;;;;;;5075117;28;20170;-78
2023/09/18 00:05:45;;;;;;;23.73;10.75;;;25.90;64.30;;;;;;5056787;28;20488;-78
2023/09/18 00:08:10;;;;;;;17.45;9.90;;;25.80;64.60;;;;;;5103357;22;20047;-79
2023/09/18 00:10:36;;;;;;;17.00;10.00;;;25.80;64.70;;;;;;5132959;27;20083;-78
2023/09/18 00:13:02;;;;;;;20.55;9.73;;;25.80;64.70;;;;;;5136086;27;20554;-78
2023/09/18 00:15:28;;;;;;;18.00;9.27;;;25.70;64.60;;;;;;5135919;27;20397;-79
2023/09/18 00:17:54;;;;;;;22.77;9.32;;;25.70;64.50;;;;;;5135905;27;20035;-76
2023/09/18 00:20:20;;;;;;;16.25;8.57;;;25.70;64.60;;;;;;5135933;27;20020;-78
2023/09/18 00:22:46;;;;;;;14.13;8.40;;;25.60;64.60;;;;;;5135861;27;20451;-79
2023/09/18 00:25:14;;;;;;;15.20;8.80;;;25.60;64.80;;;;;;5135860;27;20102;-78
2023/09/18 00:27:40;;;;;;;18.42;8.65;;;25.60;64.80;;;;;;5135918;27;20039;-78
2023/09/18 00:30:06;;;;;;;19.88;9.73;;;25.60;64.80;;;;;;5135654;27;20031;-78
2023/09/18 00:32:32;;;;;;;17.45;8.77;;;25.60;64.80;;;;;;5135493;27;20062;-78
2023/09/18 00:34:58;;;;;;;21.70;9.18;;;25.60;64.90;;;;;;5135683;27;20027;-78
2023/09/18 00:37:24;;;;;;;15.07;8.75;;;25.50;64.90;;;;;;5135767;27;20362;-78
2023/09/18 00:39:50;;;;;;;20.15;8.80;;;25.50;64.80;;;;;;5135443;27;20507;-77
2023/09/18 00:42:17;;;;;;;17.63;8.95;;;25.50;64.90;;;;;;5135325;27;20043;-78
2023/09/18 00:44:44;;;;;;;15.15;8.85;;;25.50;65.10;;;;;;5135533;27;20023;-78
2023/09/18 00:47:10;;;;;;;19.27;8.13;;;25.40;65.10;;;;;;5135469;27;20502;-77
2023/09/18 00:49:40;;;;;;;12.35;7.78;;;25.40;65.00;;;;;;5116596;27;20095;-79
2023/09/18 00:52:07;;;;;;;14.98;8.48;;;25.30;65.20;;;;;;5135405;27;20058;-77
2023/09/18 00:54:35;;;;;;;15.93;8.50;;;25.30;65.20;;;;;;5134805;27;20027;-78
2023/09/18 00:57:00;;;;;;;14.00;8.10;;;25.30;65.30;;;;;;5134958;27;20042;-77
2023/09/18 00:59:26;;;;;;;17.23;8.27;;;25.30;65.30;;;;;;5134672;27;20142;-77
2023/09/18 01:01:52;;;;;;;15.00;8.00;;;25.30;65.20;;;;;;5134620;27;20435;-79
2023/09/18 01:04:19;;;;;;;14.88;8.55;;;25.30;65.10;;;;;;5134870;27;20501;-78
2023/09/18 01:06:45;;;;;;;18.10;7.47;;;25.30;65.30;;;;;;5134646;27;20031;-79
2023/09/18 01:09:14;;;;;;;14.20;7.40;;;25.30;65.20;;;;;;5134691;27;20023;-80
2023/09/18 01:11:58;;;;;;;17.42;8.20;;;25.30;65.20;;;;;;5134487;27;20030;-78
2023/09/18 01:14:34;;;;;;;14.73;8.00;;;25.30;64.90;;;;;;5112844;27;20058;-77
2023/09/18 01:17:04;;;;;;;13.57;7.60;;;25.30;65.50;;;;;;5114114;28;20100;-78
2023/09/18 01:19:46;;;;;;;15.38;7.75;;;25.30;65.20;;;;;;5114471;28;20082;-77
2023/09/18 01:22:14;;;;;;;18.67;8.75;;;25.30;65.50;;;;;;5115019;28;20555;-78
2023/09/18 01:24:44;;;;;;;16.05;8.38;;;25.30;65.50;;;;;;5097820;28;20114;-78
2023/09/18 01:27:16;;;;;;;15.40;7.93;;;25.30;65.40;;;;;;5117265;28;20023;-79
2023/09/18 01:29:42;;;;;;;14.97;7.93;;;25.20;65.80;;;;;;5121279;28;20039;-77
2023/09/18 01:32:08;;;;;;;16.40;8.68;;;25.20;65.50;;;;;;5114224;28;20047;-78
2023/09/18 01:34:47;;;;;;;16.10;8.45;;;25.20;65.60;;;;;;5113776;28;20368;-78
2023/09/18 01:37:15;;;;;;;16.02;8.43;;;25.10;65.20;;;;;;5113906;28;20035;-78
2023/09/18 01:39:41;;;;;;;14.40;8.07;;;25.10;65.90;;;;;;5113763;28;20020;-78
2023/09/18 01:42:10;;;;;;;20.50;8.27;;;25.10;65.80;;;;;;5113525;28;20043;-77
2023/09/18 01:44:40;;;;;;;17.25;8.00;;;25.10;65.90;;;;;;5113431;28;20032;-77
2023/09/18 01:47:13;;;;;;;14.70;8.43;;;25.10;65.70;;;;;;5095297;28;20045;-79
2023/09/18 01:49:39;;;;;;;12.85;7.45;;;25.10;66.10;;;;;;5113305;28;20087;-77
2023/09/18 01:52:07;;;;;;;20.73;8.35;;;25.10;65.90;;;;;;5095129;28;20035;-79
2023/09/18 01:54:34;;;;;;;15.25;8.20;;;25.10;65.90;;;;;;5113535;28;20414;-78
2023/09/18 01:57:00;;;;;;;16.40;7.88;;;25.10;65.90;;;;;;5113493;28;20031;-78
2023/09/18 01:59:26;;;;;;;18.80;8.23;;;25.10;65.90;;;;;;5113454;28;20070;-78
2023/09/18 02:01:53;;;;;;;15.55;7.78;;;25.00;65.60;;;;;;5113422;28;20042;-78
2023/09/18 02:04:19;;;;;;;18.00;7.65;;;25.00;65.50;;;;;;5113358;28;20033;-78
2023/09/18 02:06:47;;;;;;;14.45;7.93;;;25.00;65.80;;;;;;5113171;28;20064;-78
2023/09/18 02:09:13;;;;;;;15.40;7.55;;;25.00;65.90;;;;;;5113112;28;20491;-78
2023/09/18 02:11:41;;;;;;;14.63;7.90;;;25.00;65.70;;;;;;5112954;28;20035;-78
2023/09/18 02:14:09;;;;;;;13.13;7.40;;;25.00;65.80;;;;;;5094635;28;20035;-78
2023/09/18 02:16:43;;;;;;;14.80;7.65;;;25.00;65.70;;;;;;5113028;28;20023;-78
2023/09/18 02:19:10;;;;;;;17.00;8.60;;;25.00;65.70;;;;;;5113152;28;20034;-78
2023/09/18 02:21:35;;;;;;;15.93;8.02;;;25.00;65.60;;;;;;5112590;28;20107;-77
2023/09/18 02:24:01;;;;;;;15.73;7.80;;;25.10;66.00;;;;;;5113076;28;20471;-79
2023/09/18 02:26:28;;;;;;;14.43;7.55;;;25.10;66.10;;;;;;5112964;28;20372;-79
2023/09/18 02:28:54;;;;;;;19.85;8.77;;;25.00;66.10;;;;;;5094329;28;20521;-78
2023/09/18 02:31:23;;;;;;;19.65;8.60;;;25.00;66.10;;;;;;5094323;28;20096;-78
2023/09/18 02:33:49;;;;;;;16.80;8.18;;;24.90;66.30;;;;;;5112650;28;20036;-78
2023/09/18 02:36:15;;;;;;;16.52;8.30;;;24.90;66.50;;;;;;5112736;28;20071;-78
2023/09/18 02:38:41;;;;;;;15.02;8.50;;;24.80;66.60;;;;;;5112865;28;20173;-78
2023/09/18 02:41:06;;;;;;;20.25;8.18;;;24.80;66.70;;;;;;5112216;28;20031;-78
2023/09/18 02:43:32;;;;;;;13.70;7.68;;;24.80;66.70;;;;;;5112821;28;20111;-78
2023/09/18 02:45:58;;;;;;;20.02;8.73;;;24.80;66.60;;;;;;5112835;28;20050;-77
2023/09/18 02:48:24;;;;;;;14.77;7.65;;;24.80;66.80;;;;;;5112752;28;20058;-73
2023/09/18 02:50:49;;;;;;;21.30;8.90;;;24.80;66.70;;;;;;5112552;28;20031;-78
2023/09/18 02:53:23;;;;;;;14.50;8.60;;;24.80;66.80;;;;;;5112591;28;20032;-77
2023/09/18 02:55:51;;;;;;;16.33;8.13;;;24.80;66.30;;;;;;5112562;28;20023;-78
2023/09/18 02:58:18;;;;;;;17.95;8.88;;;24.80;67.20;;;;;;5112833;28;20032;-79
2023/09/18 03:00:46;;;;;;;20.95;8.30;;;24.80;67.20;;;;;;5112549;28;20387;-77
2023/09/18 03:03:13;;;;;;;12.98;8.63;;;24.80;67.50;;;;;;5112479;28;20073;-76
2023/09/18 03:05:39;;;;;;;19.88;8.70;;;24.70;67.40;;;;;;5093958;28;20101;-77
2023/09/18 03:08:05;;;;;;;12.32;7.10;;;24.70;67.40;;;;;;5107671;28;20130;-78
2023/09/18 03:10:35;;;;;;;13.07;8.27;;;24.70;67.30;;;;;;5134290;28;20490;-78
2023/09/18 03:13:02;;;;;;;15.13;8.57;;;24.70;67.70;;;;;;5133996;28;20039;-77
2023/09/18 03:15:28;;;;;;;15.05;8.43;;;24.70;67.60;;;;;;5115813;28;20035;-78
2023/09/18 03:17:54;;;;;;;18.52;8.55;;;24.70;67.40;;;;;;5132981;28;20042;-78
2023/09/18 03:20:23;;;;;;;19.17;8.27;;;24.70;67.50;;;;;;5133055;28;20028;-77
2023/09/18 03:22:50;;;;;;;13.73;8.13;;;24.70;67.60;;;;;;5132703;28;20035;-77
2023/09/18 03:25:16;;;;;;;19.05;8.57;;;24.70;67.70;;;;;;5114602;28;20028;-76
2023/09/18 03:27:41;;;;;;;15.02;8.68;;;24.70;67.40;;;;;;5133099;28;20035;-79
2023/09/18 03:30:08;;;;;;;15.88;8.55;;;24.70;67.60;;;;;;5134831;28;20069;-78
2023/09/18 03:32:34;;;;;;;15.30;8.50;;;24.70;67.00;;;;;;5138149;28;20046;-78
2023/09/18 03:35:00;;;;;;;16.92;8.20;;;24.70;67.30;;;;;;5146444;28;20027;-78
2023/09/18 03:37:26;;;;;;;14.80;8.63;;;24.70;67.50;;;;;;5115221;28;20036;-77
2023/09/18 03:39:52;;;;;;;20.60;8.88;;;24.70;67.50;;;;;;5132805;28;20023;-77
2023/09/18 03:42:17;;;;;;;15.13;8.32;;;24.70;67.30;;;;;;5133208;28;20027;-77
2023/09/18 03:44:43;;;;;;;16.48;8.48;;;24.70;67.40;;;;;;5132481;28;20102;-78
2023/09/18 03:47:09;;;;;;;19.48;8.55;;;24.60;67.50;;;;;;5132904;28;20027;-78
2023/09/18 03:49:34;;;;;;;14.05;7.78;;;24.60;67.80;;;;;;5132632;28;20027;-79
2023/09/18 03:52:00;;;;;;;13.60;7.60;;;24.60;67.60;;;;;;5114848;27;20065;-77
2023/09/18 03:54:25;;;;;;;11.93;7.82;;;24.50;67.50;;;;;;5136322;27;20393;-78
2023/09/18 03:56:51;;;;;;;16.35;8.13;;;24.50;67.90;;;;;;5136253;27;20106;-78
2023/09/18 03:59:17;;;;;;;17.27;9.00;;;24.50;67.90;;;;;;5117678;27;20043;-77
2023/09/18 04:01:42;;;;;;;13.88;8.85;;;24.40;68.10;;;;;;5136375;27;20034;-79
2023/09/18 04:04:08;;;;;;;17.13;8.82;;;24.40;68.10;;;;;;5136237;27;20463;-78
2023/09/18 04:06:41;;;;;;;17.00;8.60;;;24.50;68.20;;;;;;5135966;27;20034;-78
2023/09/18 04:09:07;;;;;;;15.87;8.97;;;24.50;68.40;;;;;;5136084;27;20031;-78
2023/09/18 04:11:32;;;;;;;12.75;8.32;;;24.50;68.30;;;;;;5117338;27;20606;-78
2023/09/18 04:14:00;;;;;;;16.85;9.23;;;24.40;68.40;;;;;;5136311;27;20031;-78
2023/09/18 04:16:27;;;;;;;14.52;8.57;;;24.40;68.70;;;;;;5136036;27;20414;-78
2023/09/18 04:18:53;;;;;;;17.95;8.95;;;24.40;68.80;;;;;;5135998;27;20486;-78
2023/09/18 04:21:21;;;;;;;17.33;9.10;;;24.40;68.80;;;;;;5135763;27;20095;-79
2023/09/18 04:23:47;;;;;;;17.35;9.63;;;24.40;68.80;;;;;;5135975;27;20558;-77
2023/09/18 04:26:15;;;;;;;16.60;9.85;;;24.40;69.00;;;;;;5136205;27;20106;-78
2023/09/18 04:28:41;;;;;;;15.75;8.02;;;24.40;69.00;;;;;;5136246;27;20023;-78
2023/09/18 04:31:07;;;;;;;16.20;8.90;;;24.30;68.90;;;;;;5135675;27;20039;-79
2023/09/18 04:33:33;;;;;;;19.65;8.77;;;24.30;69.10;;;;;;5135790;27;20098;-78
2023/09/18 04:35:59;;;;;;;16.02;9.32;;;24.30;69.40;;;;;;5135764;27;20031;-79
2023/09/18 04:38:24;;;;;;;14.25;8.90;;;24.20;69.60;;;;;;5117373;27;20522;-78
2023/09/18 04:40:58;;;;;;;18.88;9.00;;;24.20;69.70;;;;;;5135671;27;20031;-79
2023/09/18 04:43:24;;;;;;;14.52;8.55;;;24.20;70.00;;;;;;5117092;27;20130;-77
2023/09/18 04:45:50;;;;;;;16.80;9.10;;;24.20;69.70;;;;;;5135579;27;20443;-79
2023/09/18 04:48:16;;;;;;;13.60;8.60;;;24.20;70.10;;;;;;5135552;27;20038;-78
2023/09/18 04:50:43;;;;;;;18.45;8.60;;;24.20;70.00;;;;;;5135496;27;20031;-79
2023/09/18 04:53:09;;;;;;;14.70;9.05;;;24.20;70.10;;;;;;5135378;27;20155;-79
2023/09/18 04:55:34;;;;;;;15.55;9.23;;;24.20;70.10;;;;;;5117075;27;20067;-79
2023/09/18 04:58:00;;;;;;;17.55;9.60;;;24.20;69.80;;;;;;5116726;27;20050;-79
2023/09/18 05:00:26;;;;;;;18.38;9.32;;;24.20;69.60;;;;;;5135390;27;20028;-80
2023/09/18 05:02:52;;;;;;;20.38;9.80;;;24.30;69.90;;;;;;5134899;27;20042;-79
2023/09/18 05:05:18;;;;;;;15.77;9.20;;;24.20;70.50;;;;;;5134473;27;20031;-78
2023/09/18 05:07:44;;;;;;;18.90;10.40;;;24.20;69.90;;;;;;5116629;27;20047;-80
2023/09/18 05:10:10;;;;;;;17.40;10.00;;;24.20;70.10;;;;;;5136916;27;20113;-79
2023/09/18 05:12:39;;;;;;;18.92;9.73;;;24.10;70.10;;;;;;5136120;27;20070;-75
2023/09/18 05:15:05;;;;;;;14.23;9.07;;;24.20;70.20;;;;;;5135636;27;20110;-80
2023/09/18 05:17:42;;;;;;;15.45;9.23;;;24.20;70.00;;;;;;5140347;27;20030;-77
2023/09/18 05:20:11;;;;;;;13.25;8.90;;;24.20;70.00;;;;;;5140806;27;20538;-75
2023/09/18 05:22:37;;;;;;;18.88;8.98;;;24.20;70.00;;;;;;5116303;27;20034;-77
2023/09/18 05:25:05;;;;;;;17.67;8.93;;;24.20;70.40;;;;;;5134887;27;20035;-79
2023/09/18 05:27:31;;;;;;;17.73;8.93;;;24.20;70.10;;;;;;5135156;27;20024;-78
2023/09/18 05:29:57;;;;;;;20.30;9.27;;;24.20;70.30;;;;;;5116622;27;20062;-78
2023/09/18 05:32:23;;;;;;;15.70;9.25;;;24.20;70.20;;;;;;5134971;27;20043;-78
2023/09/18 05:34:48;;;;;;;23.30;9.85;;;24.20;70.20;;;;;;5136026;27;20053;-78
2023/09/18 05:37:15;;;;;;;18.50;9.43;;;24.30;70.30;;;;;;5120263;27;20040;-78
2023/09/18 05:39:41;;;;;;;16.08;9.27;;;24.40;70.00;;;;;;5126956;27;20031;-79
2023/09/18 05:42:07;;;;;;;18.95;9.23;;;24.50;69.80;;;;;;5137192;27;20423;-78
2023/09/18 05:44:33;;;;;;;21.48;9.63;;;24.50;69.40;;;;;;5134883;27;20128;-80
2023/09/18 05:46:59;;;;;;;18.67;9.85;;;24.60;69.40;;;;;;5134973;27;20399;-80
2023/09/18 05:49:24;;;;;;;20.58;8.57;;;24.70;69.60;;;;;;5135148;27;20056;-80
2023/09/18 05:51:50;;;;;;;18.17;8.65;;;24.70;69.20;;;;;;5116138;27;20482;-80
2023/09/18 05:54:16;;;;;;;20.75;9.25;;;24.90;69.10;;;;;;5134471;27;20130;-79
2023/09/18 05:56:41;;;;;;;19.00;9.52;;;24.90;68.80;;;;;;5134651;27;20110;-79
2023/09/18 05:59:07;;;;;;;17.33;9.18;;;24.90;68.80;;;;;;5134837;27;20051;-79
2023/09/18 06:01:33;;;;;;;16.73;8.82;;;24.90;68.90;;;;;;5134530;27;20046;-81
2023/09/18 06:03:59;;;;;;;19.52;9.98;;;24.80;68.70;;;;;;5134269;27;20027;-81
2023/09/18 06:06:27;;;;;;;19.92;9.85;;;24.80;69.00;;;;;;5134676;27;20517;-79
2023/09/18 06:08:53;;;;;;;21.40;8.48;;;24.80;68.20;;;;;;5134161;27;20046;-79
2023/09/18 06:11:19;;;;;;;17.77;8.23;;;24.80;68.70;;;;;;5134638;27;20039;-79
2023/09/18 06:13:45;;;;;;;17.77;8.27;;;24.90;68.60;;;;;;5134702;27;20084;-78
2023/09/18 06:16:11;;;;;;;23.60;9.15;;;24.90;68.30;;;;;;5134298;27;20035;-80
2023/09/18 06:18:38;;;;;;;21.23;8.80;;;25.00;68.20;;;;;;5134002;27;20027;-79
2023/09/18 06:21:05;;;;;;;19.77;8.15;;;25.00;68.00;;;;;;5135424;27;20047;-80
2023/09/18 06:23:31;;;;;;;19.52;7.93;;;25.00;67.80;;;;;;5136576;27;20031;-79
2023/09/18 06:25:59;;;;;;;16.77;7.18;;;25.10;67.60;;;;;;5120017;28;20031;-79
2023/09/18 06:28:24;;;;;;;15.43;7.82;;;25.20;67.30;;;;;;5121412;27;20027;-80
2023/09/18 06:30:51;;;;;;;16.05;7.80;;;25.20;66.90;;;;;;5138622;27;20618;-81
2023/09/18 06:33:16;;;;;;;19.70;8.35;;;25.30;66.90;;;;;;5136698;27;20121;-80
2023/09/18 06:35:42;;;;;;;23.90;7.95;;;25.30;66.50;;;;;;5117908;28;20135;-78
2023/09/18 06:38:10;;;;;;;20.38;8.05;;;25.40;66.70;;;;;;5118590;28;20035;-79
2023/09/18 06:40:35;;;;;;;21.30;8.85;;;25.50;66.40;;;;;;5138742;27;20027;-79
2023/09/18 06:43:01;;;;;;;16.80;7.47;;;25.50;66.20;;;;;;5138930;28;20051;-79
2023/09/18 06:45:30;;;;;;;22.58;7.85;;;25.60;65.90;;;;;;5138236;28;20103;-80
2023/09/18 06:47:55;;;;;;;18.88;7.50;;;25.60;65.40;;;;;;5119213;28;20039;-79
2023/09/18 06:50:21;;;;;;;19.83;8.18;;;25.70;65.60;;;;;;5119686;28;20035;-79
2023/09/18 06:52:47;;;;;;;20.58;7.85;;;25.80;65.20;;;;;;5137291;28;20043;-79
2023/09/18 06:55:13;;;;;;;15.23;7.03;;;25.80;65.00;;;;;;5137200;28;20380;-79
2023/09/18 06:57:40;;;;;;;14.95;7.43;;;25.90;64.80;;;;;;5140417;28;20035;-81
2023/09/18 07:00:07;;;;;;;17.80;8.00;;;26.10;64.40;;;;;;5137232;28;20042;-81
2023/09/18 07:02:33;;;;;;;20.05;7.90;;;26.20;64.10;;;;;;5134218;28;20024;-81
2023/09/18 07:04:58;;;;;;;14.45;7.07;;;26.40;63.60;;;;;;5136357;28;20106;-81
2023/09/18 07:07:25;;;;;;;20.00;8.35;;;26.50;63.40;;;;;;5136439;28;20077;-79
2023/09/18 07:09:51;;;;;;;16.85;7.47;;;26.60;63.30;;;;;;5117660;28;20490;-80
2023/09/18 07:12:20;;;;;;;22.45;7.60;;;26.60;63.20;;;;;;5134444;28;20043;-81
2023/09/18 07:14:46;;;;;;;23.33;7.40;;;26.70;63.00;;;;;;5133628;28;20106;-80
2023/09/18 07:17:12;;;;;;;15.50;7.50;;;26.80;62.60;;;;;;5133928;28;20038;-80
2023/09/18 07:19:39;;;;;;;18.83;6.95;;;26.90;62.30;;;;;;5133878;28;20023;-79
2023/09/18 07:22:05;;;;;;;18.15;7.80;;;27.00;62.10;;;;;;5134153;28;20040;-80
2023/09/18 07:24:30;;;;;;;22.45;7.30;;;27.10;62.10;;;;;;5133958;28;20038;-81
2023/09/18 07:26:57;;;;;;;24.70;7.63;;;27.10;61.80;;;;;;5116244;27;20035;-81
2023/09/18 07:29:25;;;;;;;17.67;7.32;;;27.20;61.60;;;;;;5137742;27;20107;-81
2023/09/18 07:31:51;;;;;;;20.65;7.43;;;27.30;61.50;;;;;;5138316;27;20042;-79
2023/09/18 07:34:17;;;;;;;18.17;8.05;;;27.40;61.30;;;;;;5154501;27;20023;-81
2023/09/18 07:36:44;;;;;;;17.55;7.63;;;27.40;61.10;;;;;;5155106;27;20036;-81
2023/09/18 07:39:11;;;;;;;18.17;7.72;;;27.50;61.00;;;;;;5138624;27;20039;-79
2023/09/18 07:41:37;;;;;;;18.65;7.93;;;27.60;60.60;;;;;;5140693;27;20057;-80
2023/09/18 07:44:03;;;;;;;22.27;8.32;;;27.60;60.70;;;;;;5144826;27;20023;-80
2023/09/18 07:46:29;;;;;;;20.17;7.68;;;27.70;60.70;;;;;;5147590;27;20031;-80
2023/09/18 07:48:55;;;;;;;21.30;9.23;;;27.70;60.80;;;;;;5137730;27;21169;-80
2023/09/18 07:51:20;;;;;;;17.92;7.78;;;27.70;60.60;;;;;;5137235;27;20039;-79
2023/09/18 07:53:47;;;;;;;18.85;8.57;;;27.70;61.20;;;;;;5118108;27;20031;-80
2023/09/18 07:56:12;;;;;;;19.17;8.05;;;27.60;60.40;;;;;;5136821;27;20031;-81
2023/09/18 07:58:38;;;;;;;21.70;7.72;;;27.60;60.40;;;;;;5136568;27;20027;-80
2023/09/18 08:01:09;;;;;;;21.60;7.68;;;27.60;60.30;;;;;;5136721;27;20028;-79
2023/09/18 08:03:35;;;;;;;17.88;7.47;;;27.60;60.30;;;;;;5136577;27;20034;-81
2023/09/18 08:06:01;;;;;;;22.65;7.18;;;27.70;60.20;;;;;;5136219;27;20031;-82
2023/09/18 08:08:27;;;;;;;18.05;7.38;;;27.70;60.10;;;;;;5136850;27;20100;-80
2023/09/18 08:10:53;;;;;;;21.23;9.10;;;27.70;60.00;;;;;;5136446;27;20368;-79
2023/09/18 08:13:19;;;;;;;17.38;7.78;;;27.70;60.10;;;;;;5117973;27;20047;-81
2023/09/18 08:15:45;;;;;;;21.55;8.80;;;27.60;59.90;;;;;;5118041;27;20031;-75
2023/09/18 08:18:14;;;;;;;16.55;7.50;;;27.60;60.00;;;;;;5136897;27;20032;-80
2023/09/18 08:20:43;;;;;;;19.67;7.55;;;27.60;60.00;;;;;;5136505;27;20031;-81
2023/09/18 08:23:12;;;;;;;19.52;7.85;;;27.50;60.10;;;;;;5136247;27;20028;-79
2023/09/18 08:25:40;;;;;;;21.63;8.43;;;27.60;60.10;;;;;;5136354;27;20044;-79
2023/09/18 08:28:06;;;;;;;17.08;8.02;;;27.60;60.10;;;;;;5136236;27;20463;-80
2023/09/18 08:30:32;;;;;;;20.83;7.78;;;27.60;60.10;;;;;;5136377;27;20060;-78
2023/09/18 08:32:58;;;;;;;16.13;8.45;;;27.60;60.00;;;;;;5117332;27;20051;-80
2023/09/18 08:35:28;;;;;;;17.95;7.50;;;27.70;60.00;;;;;;5117927;27;20072;-81
2023/09/18 08:37:54;;;;;;;17.83;7.13;;;27.70;59.70;;;;;;5136117;27;20031;-78
2023/09/18 08:40:20;;;;;;;19.15;7.57;;;27.80;59.60;;;;;;5136372;27;20080;-80
2023/09/18 08:42:48;;;;;;;20.27;7.68;;;27.80;59.60;;;;;;5135801;27;20107;-80
2023/09/18 08:45:30;;;;;;;23.83;7.40;;;27.80;59.90;;;;;;5117354;27;20032;-79
2023/09/18 08:47:56;;;;;;;20.00;7.75;;;27.90;60.10;;;;;;5135501;27;20478;-80
2023/09/18 08:50:23;;;;;;;19.92;8.05;;;27.90;59.70;;;;;;5117044;27;20425;-79
2023/09/18 08:52:49;;;;;;;24.55;7.38;;;27.90;59.70;;;;;;5135576;27;20039;-81
2023/09/18 08:55:16;;;;;;;18.80;7.32;;;27.90;59.70;;;;;;5116864;27;20027;-80
2023/09/18 08:57:44;;;;;;;17.52;7.40;;;28.00;59.70;;;;;;5116907;27;20088;-79
2023/09/18 09:00:16;;;;;;;27.88;8.27;;;28.00;59.60;;;;;;5135686;27;20034;-80
2023/09/18 09:02:45;;;;;;;16.88;7.40;;;28.00;59.50;;;;;;5135885;27;20036;-79
2023/09/18 09:05:11;;;;;;;19.33;7.30;;;28.10;59.40;;;;;;5135901;27;20054;-79
2023/09/18 09:07:37;;;;;;;23.27;7.75;;;28.20;59.30;;;;;;5135237;27;20416;-81
2023/09/18 09:10:04;;;;;;;22.77;8.63;;;28.20;59.10;;;;;;5135022;27;20030;-79
2023/09/18 09:12:55;;;;;;;16.38;7.43;;;28.30;59.10;;;;;;5134486;27;20518;-80
2023/09/18 09:15:23;;;;;;;19.52;7.18;;;28.30;58.60;;;;;;5134982;27;20039;-78
2023/09/18 09:17:51;;;;;;;19.88;8.45;;;28.40;58.40;;;;;;5135165;27;20050;-79
2023/09/18 09:20:18;;;;;;;18.73;8.13;;;28.50;58.40;;;;;;5116407;27;20035;-80
2023/09/18 09:22:44;;;;;;;20.70;7.63;;;28.50;58.10;;;;;;5134812;27;20023;-80
2023/09/18 09:25:27;;;;;;;19.40;7.30;;;28.60;57.60;;;;;;5134995;27;20031;-80
2023/09/18 09:27:54;;;;;;;20.15;8.18;;;28.60;57.50;;;;;;5134984;27;20031;-80
2023/09/18 09:30:23;;;;;;;16.42;7.93;;;28.70;57.40;;;;;;5134588;27;20084;-79
2023/09/18 09:32:50;;;;;;;18.77;7.80;;;28.80;58.00;;;;;;5134671;27;20043;-80
2023/09/18 09:35:26;;;;;;;21.92;7.63;;;28.80;56.90;;;;;;5134636;27;20492;-79
2023/09/18 09:38:08;;;;;;;18.15;6.97;;;28.90;56.70;;;;;;5134493;27;20035;-80
2023/09/18 09:40:35;;;;;;;15.48;7.10;;;29.00;56.60;;;;;;5134473;27;20396;-80
2023/09/18 09:43:01;;;;;;;15.63;7.10;;;29.10;56.50;;;;;;5134588;27;20028;-80
2023/09/18 09:45:29;;;;;;;22.33;7.43;;;29.20;56.30;;;;;;5119791;27;20041;-79
2023/09/18 09:47:56;;;;;;;22.15;7.15;;;29.30;56.00;;;;;;5120678;27;20042;-80
2023/09/18 09:50:22;;;;;;;15.95;7.03;;;29.30;55.60;;;;;;5139126;27;20058;-79
2023/09/18 09:52:50;;;;;;;17.40;7.78;;;29.40;55.40;;;;;;5116693;27;20035;-80
2023/09/18 09:55:28;;;;;;;19.50;7.18;;;29.50;55.10;;;;;;5134798;27;20110;-80
2023/09/18 09:57:57;;;;;;;15.52;5.97;;;29.50;54.30;;;;;;5134316;27;20047;-79
2023/09/18 10:00:30;;;;;;;16.63;6.80;;;29.60;54.60;;;;;;5115575;27;20031;-80
2023/09/18 10:03:01;;;;;;;21.98;6.03;;;29.60;54.40;;;;;;5134194;27;20095;-80
2023/09/18 10:05:29;;;;;;;15.13;6.10;;;29.70;53.60;;;;;;5133562;27;20058;-79
2023/09/18 10:07:58;;;;;;;17.23;6.68;;;29.70;53.20;;;;;;5133559;27;20490;-81
2023/09/18 10:10:30;;;;;;;18.77;7.07;;;29.80;53.40;;;;;;5133978;27;20053;-80
2023/09/18 10:13:03;;;;;;;17.77;7.32;;;29.90;52.80;;;;;;5133634;27;20440;-79
2023/09/18 10:15:33;;;;;;;;;;;29.90;52.90;;;;;;5134921;27;20425;-79
2023/09/18 10:18:02;;;;;;;21.15;6.53;;;30.00;53.70;;;;;;5133671;27;19961;-79
2023/09/18 10:20:29;;;;;;;17.83;5.70;;;30.00;53.00;;;;;;5134189;27;20491;-80
2023/09/18 10:22:58;;;;;;;11.88;5.25;;;30.00;52.40;;;;;;5133813;27;20386;-80
2023/09/18 10:25:27;;;;;;;17.92;6.15;;;30.10;52.30;;;;;;5134206;27;20031;-80
2023/09/18 10:28:02;;;;;;;19.17;6.40;;;30.10;52.00;;;;;;5134132;27;20364;-80
2023/09/18 10:30:31;;;;;;;17.15;5.72;;;30.20;51.20;;;;;;5133738;27;20475;-80
2023/09/18 10:32:59;;;;;;;16.67;5.28;;;30.30;51.50;;;;;;5134365;27;20039;-80
2023/09/18 10:35:25;;;;;;;15.80;5.22;;;30.30;49.80;;;;;;5134024;27;20034;-79
2023/09/18 10:37:54;;;;;;;19.23;4.60;;;30.40;48.40;;;;;;5133903;27;20124;-80
2023/09/18 10:40:21;;;;;;;10.38;4.07;;;30.50;47.40;;;;;;5115150;28;20031;-80
2023/09/18 10:42:48;;;;;;;10.00;3.72;;;30.60;45.90;;;;;;5115023;28;20562;-80
2023/09/18 10:45:15;;;;;;;9.35;3.85;;;30.60;44.40;;;;;;5133762;28;20059;-82
2023/09/18 10:47:47;;;;;;;12.30;4.00;;;30.70;44.50;;;;;;5133523;28;20035;-79
2023/09/18 10:50:24;;;;;;;11.70;3.75;;;30.80;44.50;;;;;;5133448;28;20031;-80
2023/09/18 10:52:50;;;;;;;10.98;4.18;;;30.90;44.30;;;;;;5133467;28;20135;-80
2023/09/18 10:55:16;;;;;;;15.90;5.28;;;31.00;44.00;;;;;;5133380;28;20067;-80
2023/09/18 10:57:53;;;;;;;17.48;4.93;;;31.00;44.00;;;;;;5133357;28;20035;-79
2023/09/18 11:00:22;;;;;;;9.70;4.65;;;31.10;44.00;;;;;;5133690;28;20035;-79
2023/09/18 11:03:11;;;;;;;13.85;4.47;;;31.10;43.90;;;;;;5135849;27;20027;-80
2023/09/18 11:05:37;;;;;;;11.95;3.78;;;31.20;42.60;;;;;;5119308;27;20031;-80
2023/09/18 11:08:46;;;;;;;10.95;4.43;;;31.40;42.90;;;;;;5137297;27;20396;-80
2023/09/18 11:11:14;;;;;;;9.98;4.03;;;31.50;41.60;;;;;;5053957;28;20033;-79
2023/09/18 11:13:47;;;;;;;16.02;4.80;;;31.50;42.20;;;;;;5054110;28;20072;-80
2023/09/18 11:16:19;;;;;;;8.02;3.90;;;31.60;41.40;;;;;;5101494;27;20061;-80
2023/09/18 11:18:52;;;;;;;9.07;3.78;;;31.60;41.80;;;;;;5137461;27;20420;-80
2023/09/18 11:21:23;;;;;;;10.50;4.57;;;31.70;41.70;;;;;;5137324;27;20035;-78
2023/09/18 11:24:02;;;;;;;10.48;5.47;;;31.60;41.70;;;;;;5118939;27;20023;-80
2023/09/18 11:26:31;;;;;;;13.95;4.35;;;31.60;41.30;;;;;;5137570;27;20035;-79
2023/09/18 11:29:05;;;;;;;12.77;4.10;;;31.60;41.80;;;;;;5119114;27;20031;-80
2023/09/18 11:31:53;;;;;;;8.60;3.80;;;31.60;41.50;;;;;;5137316;27;20035;-80
2023/09/18 11:34:26;;;;;;;8.82;3.70;;;31.60;41.30;;;;;;5119110;27;20038;-80
2023/09/18 11:36:52;;;;;;;11.52;4.32;;;31.70;41.20;;;;;;5137270;27;20034;-79
2023/09/18 11:39:38;;;;;;;10.10;4.00;;;31.70;41.50;;;;;;5118767;27;20031;-80
2023/09/18 11:42:09;;;;;;;12.23;5.00;;;31.70;41.50;;;;;;5137250;27;20374;-79
2023/09/18 11:44:40;;;;;;;12.27;4.72;;;31.80;41.60;;;;;;5136902;27;20027;-78
2023/09/18 11:47:19;;;;;;;11.30;4.07;;;31.80;41.80;;;;;;5136993;27;20047;-79
2023/09/18 11:49:58;;;;;;;11.13;4.32;;;31.80;41.80;;;;;;5145245;27;20034;-78
2023/09/18 11:52:29;;;;;;;8.45;3.42;;;31.80;41.70;;;;;;5143276;27;20039;-80
2023/09/18 11:55:00;;;;;;;9.50;3.50;;;31.80;41.50;;;;;;5141457;27;20383;-79
2023/09/18 11:57:28;;;;;;;11.48;4.03;;;31.90;41.70;;;;;;5137415;27;20491;-79
2023/09/18 11:59:55;;;;;;;10.80;3.70;;;31.90;41.60;;;;;;5140322;27;20078;-79
2023/09/18 12:02:34;;;;;;;8.77;3.55;;;31.90;41.60;;;;;;5147776;27;20119;-78
2023/09/18 12:05:15;;;;;;;8.70;3.30;;;32.00;40.80;;;;;;5137807;27;20038;-80
2023/09/18 12:07:45;;;;;;;8.80;3.17;;;32.00;39.70;;;;;;5118364;27;20548;-79
2023/09/18 12:10:14;;;;;;;8.57;2.92;;;32.00;39.10;;;;;;5118100;27;20219;-79
2023/09/18 12:12:42;;;;;;;13.13;3.30;;;32.00;38.10;;;;;;5135792;27;20039;-79
2023/09/18 12:15:11;;;;;;;7.55;3.15;;;32.10;37.80;;;;;;5117480;27;20482;-79
2023/09/18 12:17:37;;;;;;;5.70;3.17;;;32.10;37.40;;;;;;5136607;27;20050;-80
2023/09/18 12:20:05;;;;;;;7.45;2.63;;;32.10;36.40;;;;;;5135927;27;20494;-80
2023/09/18 12:22:33;;;;;;;7.57;2.80;;;32.20;36.20;;;;;;5135728;27;20104;-81
2023/09/18 12:25:12;;;;;;;10.85;3.17;;;32.20;35.70;;;;;;5136329;27;20019;-80
2023/09/18 12:27:37;;;;;;;6.30;2.17;;;32.20;35.10;;;;;;5136009;27;20043;-80
2023/09/18 12:30:05;;;;;;;9.60;2.50;;;32.20;34.90;;;;;;5117738;27;20394;-80
2023/09/18 12:32:32;;;;;;;7.50;2.50;;;32.10;34.50;;;;;;5135517;27;20077;-81
2023/09/18 12:34:58;;;;;;;12.85;3.13;;;32.10;34.50;;;;;;5135962;27;20111;-80
2023/09/18 12:37:25;;;;;;;10.20;2.90;;;32.20;34.20;;;;;;5117171;27;20159;-80
2023/09/18 12:39:51;;;;;;;7.50;2.67;;;32.20;34.40;;;;;;5135761;27;20031;-79
2023/09/18 12:42:20;;;;;;;9.65;3.35;;;32.20;34.90;;;;;;5135875;27;20031;-80